createdAt,value
2022-11-13T00:01:26.554Z,68.87
2022-11-13T00:04:12.692Z,68.57
2022-11-13T00:06:59.297Z,67.93
2022-11-13T00:09:45.315Z,68.50
2022-11-13T00:12:30.707Z,66.60
2022-11-13T00:15:16.104Z,67.83
2022-11-13T00:18:03.175Z,68.63
2022-11-13T00:20:48.996Z,68.07
2022-11-13T00:23:36.255Z,68.87
2022-11-13T00:26:27.929Z,67.33
2022-11-13T00:29:13.194Z,68.70
2022-11-13T00:31:58.402Z,67.20
2022-11-13T00:34:48.361Z,66.03
2022-11-13T00:37:34.205Z,67.60
2022-11-13T00:40:19.508Z,68.57
2022-11-13T00:43:04.958Z,67.63
2022-11-13T00:45:50.279Z,66.30
2022-11-13T00:48:36.943Z,67.40
2022-11-13T00:51:22.953Z,67.63
2022-11-13T00:54:08.323Z,67.27
2022-11-13T00:56:53.771Z,66.97
2022-11-13T00:59:39.248Z,66.53
2022-11-13T01:02:24.639Z,66.33
2022-11-13T01:05:10.035Z,67.77
2022-11-13T01:07:55.396Z,66.53
2022-11-13T01:10:51.895Z,66.23
2022-11-13T01:13:45.503Z,66.93
2022-11-13T01:16:31.104Z,68.10
2022-11-13T01:19:16.741Z,65.80
2022-11-13T01:22:02.051Z,67.87
2022-11-13T01:24:47.496Z,66.07
2022-11-13T01:27:36.157Z,66.97
2022-11-13T01:30:21.858Z,66.27
2022-11-13T01:33:07.202Z,66.97
2022-11-13T01:35:52.368Z,66.83
2022-11-13T01:38:38.251Z,65.90
2022-11-13T01:41:31.856Z,67.00
2022-11-13T01:44:19.568Z,65.53
2022-11-13T01:47:05.256Z,65.80
2022-11-13T01:49:56.822Z,65.27
2022-11-13T01:52:43.101Z,66.27
2022-11-13T01:55:29.086Z,67.13
2022-11-13T01:58:16.537Z,67.30
2022-11-13T02:01:01.921Z,66.30
2022-11-13T02:03:47.288Z,66.40
2022-11-13T02:07:09.091Z,65.50
2022-11-13T02:09:57.424Z,65.80
2022-11-13T02:12:48.656Z,67.07
2022-11-13T02:15:35.239Z,65.93
2022-11-13T02:18:22.584Z,65.97
2022-11-13T02:21:30.256Z,66.83
2022-11-13T02:24:35.055Z,66.60
2022-11-13T02:27:45.520Z,66.80
2022-11-13T02:30:34.214Z,66.57
2022-11-13T02:33:32.840Z,66.70
2022-11-13T02:36:20.542Z,67.07
2022-11-13T02:39:11.592Z,65.53
2022-11-13T02:41:57.223Z,67.17
2022-11-13T02:44:42.845Z,65.80
2022-11-13T02:47:28.857Z,66.20
2022-11-13T02:50:15.384Z,66.07
2022-11-13T02:53:00.941Z,66.20
2022-11-13T02:55:46.226Z,67.97
2022-11-13T02:58:31.864Z,64.50
2022-11-13T03:01:17.665Z,66.30
2022-11-13T03:04:03.381Z,66.83
2022-11-13T03:06:49.329Z,67.13
2022-11-13T03:09:34.560Z,64.97
2022-11-13T03:12:20.294Z,66.07
2022-11-13T03:15:08.179Z,64.37
2022-11-13T03:17:53.549Z,66.37
2022-11-13T03:20:41.546Z,66.43
2022-11-13T03:23:26.675Z,64.63
2022-11-13T03:26:15.414Z,65.10
2022-11-13T03:29:01.077Z,63.63
2022-11-13T03:31:46.311Z,65.47
2022-11-13T03:34:32.352Z,63.97
2022-11-13T03:37:18.284Z,66.73
2022-11-13T03:40:03.841Z,65.87
2022-11-13T03:42:49.303Z,64.83
2022-11-13T03:45:34.764Z,65.67
2022-11-13T03:48:20.182Z,66.30
2022-11-13T03:51:05.715Z,66.77
2022-11-13T03:53:51.175Z,66.33
2022-11-13T03:56:36.640Z,64.73
2022-11-13T03:59:21.965Z,65.33
2022-11-13T04:02:07.467Z,65.80
2022-11-13T04:04:53.296Z,65.80
2022-11-13T04:07:38.605Z,65.30
2022-11-13T04:10:24.561Z,64.70
2022-11-13T04:13:10.363Z,65.10
2022-11-13T04:15:55.768Z,64.90
2022-11-13T04:18:41.659Z,64.57
2022-11-13T04:21:27.892Z,65.40
2022-11-13T04:24:13.528Z,63.97
2022-11-13T04:26:59.015Z,64.63
2022-11-13T04:29:44.386Z,64.20
2022-11-13T04:32:29.934Z,64.50
2022-11-13T04:35:15.136Z,63.03
2022-11-13T04:38:00.612Z,64.77
2022-11-13T04:40:49.681Z,64.13
2022-11-13T04:43:35.185Z,64.63
2022-11-13T04:46:20.569Z,64.70
2022-11-13T04:49:05.912Z,63.13
2022-11-13T04:51:51.295Z,64.67
2022-11-13T04:54:36.631Z,66.00
2022-11-13T04:57:22.136Z,64.63
2022-11-13T05:00:09.798Z,64.63
2022-11-13T05:02:56.820Z,64.27
2022-11-13T05:05:42.356Z,64.57
2022-11-13T05:08:28.214Z,65.07
2022-11-13T05:11:14.221Z,65.03
2022-11-13T05:14:03.187Z,64.60
2022-11-13T05:16:50.256Z,65.60
2022-11-13T05:19:36.158Z,65.47
2022-11-13T05:22:21.868Z,65.27
2022-11-13T05:25:07.940Z,64.07
2022-11-13T05:27:53.473Z,65.87
2022-11-13T05:30:38.890Z,65.37
2022-11-13T05:33:24.336Z,65.70
2022-11-13T05:36:14.975Z,73.20
2022-11-13T05:39:00.772Z,69.90
2022-11-13T05:41:46.237Z,67.83
2022-11-13T05:44:31.602Z,66.67
2022-11-13T05:47:17.038Z,64.67
2022-11-13T05:50:02.356Z,65.10
2022-11-13T05:52:48.247Z,65.67
2022-11-13T05:55:33.644Z,64.87
2022-11-13T05:58:19.040Z,70.07
2022-11-13T06:01:18.313Z,68.03
2022-11-13T06:04:05.420Z,71.00
2022-11-13T06:06:52.450Z,71.90
2022-11-13T06:09:38.104Z,70.70
2022-11-13T06:12:23.400Z,67.33
2022-11-13T06:15:09.505Z,64.17
2022-11-13T06:17:54.936Z,65.07
2022-11-13T06:20:40.345Z,65.23
2022-11-13T06:23:25.770Z,64.97
2022-11-13T06:26:17.113Z,63.73
2022-11-13T06:29:05.583Z,62.13
2022-11-13T06:31:51.148Z,63.90
2022-11-13T06:34:36.456Z,62.93
2022-11-13T06:37:21.844Z,63.70
2022-11-13T06:40:08.260Z,65.80
2022-11-13T06:42:53.887Z,96.37
2022-11-13T06:45:39.262Z,68.60
2022-11-13T06:48:25.733Z,64.30
2022-11-13T06:51:28.210Z,63.17
2022-11-13T06:54:13.556Z,63.07
2022-11-13T06:56:58.745Z,64.77
2022-11-13T06:59:44.104Z,63.20
2022-11-13T07:02:29.793Z,65.03
2022-11-13T07:05:15.160Z,64.77
2022-11-13T07:08:00.698Z,65.83
2022-11-13T07:10:56.506Z,66.13
2022-11-13T07:13:42.495Z,64.83
2022-11-13T07:16:38.850Z,64.13
2022-11-13T07:19:30.966Z,64.27
2022-11-13T07:22:16.513Z,63.57
2022-11-13T07:25:01.926Z,64.80
2022-11-13T07:27:47.322Z,63.63
2022-11-13T07:30:32.709Z,63.93
2022-11-13T07:33:17.879Z,63.40
2022-11-13T07:36:03.419Z,62.80
2022-11-13T07:38:48.811Z,62.37
2022-11-13T07:41:34.206Z,61.37
2022-11-13T07:44:39.927Z,61.40
2022-11-13T07:47:25.338Z,58.93
2022-11-13T07:50:11.184Z,58.53
2022-11-13T07:53:03.529Z,58.37
2022-11-13T07:55:49.168Z,58.53
2022-11-13T07:58:34.496Z,59.03
2022-11-13T08:01:20.314Z,57.77
2022-11-13T08:04:05.613Z,57.63
2022-11-13T08:06:51.355Z,57.90
2022-11-13T08:09:37.072Z,57.20
2022-11-13T08:12:22.769Z,57.47
2022-11-13T08:15:13.204Z,58.33
2022-11-13T08:18:01.860Z,57.83
2022-11-13T08:20:47.155Z,56.17
2022-11-13T08:23:32.876Z,56.23
2022-11-13T08:26:19.168Z,57.20
2022-11-13T08:29:05.107Z,57.17
2022-11-13T08:31:50.737Z,57.20
2022-11-13T08:34:37.329Z,57.13
2022-11-13T08:37:22.874Z,58.33
2022-11-13T08:40:09.458Z,57.57
2022-11-13T08:43:00.352Z,58.00
2022-11-13T08:45:47.429Z,57.50
2022-11-13T08:48:33.076Z,56.63
2022-11-13T08:51:18.470Z,57.03
2022-11-13T08:54:03.877Z,57.90
2022-11-13T08:56:54.648Z,57.60
2022-11-13T08:59:41.680Z,56.53
2022-11-13T09:02:27.327Z,57.83
2022-11-13T09:05:13.279Z,57.57
2022-11-13T09:08:01.122Z,58.17
2022-11-13T09:10:47.385Z,59.27
2022-11-13T09:13:34.072Z,61.43
2022-11-13T09:16:19.609Z,59.10
2022-11-13T09:19:05.403Z,57.63
2022-11-13T09:21:52.124Z,58.57
2022-11-13T09:24:37.890Z,57.97
2022-11-13T09:27:23.318Z,59.23
2022-11-13T09:30:09.398Z,58.63
2022-11-13T09:32:57.308Z,58.57
2022-11-13T09:35:43.544Z,59.77
2022-11-13T09:38:34.987Z,67.63
2022-11-13T09:41:25.614Z,61.30
2022-11-13T09:44:21.052Z,64.03
2022-11-13T09:47:20.065Z,66.57
2022-11-13T09:50:26.424Z,67.20
2022-11-13T09:53:15.179Z,62.90
2022-11-13T09:56:26.241Z,64.27
2022-11-13T09:59:29.608Z,65.83
2022-11-13T10:02:27.657Z,67.73
2022-11-13T10:06:06.042Z,63.83
2022-11-13T10:08:56.418Z,61.73
2022-11-13T10:11:58.933Z,56.73
2022-11-13T10:14:49.290Z,57.10
2022-11-13T10:18:05.762Z,56.60
2022-11-13T10:20:58.057Z,57.27
2022-11-13T10:23:48.177Z,56.77
2022-11-13T10:26:33.628Z,57.03
2022-11-13T10:29:20.870Z,58.30
2022-11-13T10:32:19.980Z,57.53
2022-11-13T10:35:05.296Z,58.47
2022-11-13T10:38:11.782Z,58.40
2022-11-13T10:41:33.260Z,56.87
2022-11-13T10:44:21.698Z,57.53
2022-11-13T10:47:36.163Z,58.83
2022-11-13T10:50:28.192Z,58.43
2022-11-13T10:53:16.949Z,59.60
2022-11-13T10:56:14.548Z,58.40
2022-11-13T10:59:19.564Z,57.77
2022-11-13T11:02:20.794Z,57.90
2022-11-13T11:05:22.619Z,59.00
2022-11-13T11:08:11.493Z,59.63
2022-11-13T11:11:18.385Z,58.97
2022-11-13T11:14:32.359Z,58.53
2022-11-13T11:17:21.336Z,59.57
2022-11-13T11:20:27.094Z,60.67
2022-11-13T11:24:13.161Z,61.03
2022-11-13T11:27:10.267Z,59.77
2022-11-13T11:30:15.783Z,60.90
2022-11-13T11:33:13.398Z,60.03
2022-11-13T11:36:14.067Z,59.70
2022-11-13T11:39:54.237Z,59.20
2022-11-13T11:42:51.912Z,59.10
2022-11-13T11:45:42.974Z,59.13
2022-11-13T11:48:33.206Z,59.77
2022-11-13T11:51:31.622Z,59.50
2022-11-13T11:55:06.278Z,60.73
2022-11-13T11:58:35.117Z,60.23
2022-11-13T12:02:06.539Z,61.10
2022-11-13T12:04:55.844Z,64.37
2022-11-13T12:08:09.189Z,60.77
2022-11-13T12:11:14.915Z,76.90
2022-11-13T12:14:12.387Z,59.27
2022-11-13T12:17:41.900Z,59.87
2022-11-13T12:20:44.072Z,59.37
2022-11-13T12:24:20.649Z,59.53
2022-11-13T12:27:42.989Z,60.03
2022-11-13T12:30:40.110Z,59.73
2022-11-13T12:34:08.742Z,60.73
2022-11-13T12:36:56.029Z,58.80
2022-11-13T12:40:06.955Z,60.57
2022-11-13T12:43:29.288Z,59.80
2022-11-13T12:46:15.766Z,59.57
2022-11-13T12:49:01.135Z,58.50
2022-11-13T12:51:59.540Z,58.53
2022-11-13T12:54:45.364Z,60.10
2022-11-13T12:57:32.373Z,61.70
2022-11-13T13:00:39.207Z,60.33
2022-11-13T13:04:06.158Z,60.27
2022-11-13T13:07:41.511Z,60.47
2022-11-13T13:10:54.682Z,61.37
2022-11-13T13:13:51.873Z,62.90
2022-11-13T13:16:37.474Z,62.63
2022-11-13T13:19:33.340Z,61.77
2022-11-13T13:22:35.250Z,62.30
2022-11-13T13:25:31.106Z,60.43
2022-11-13T13:28:23.098Z,62.50
2022-11-13T13:31:37.411Z,64.97
2022-11-13T13:34:56.703Z,63.57
2022-11-13T13:38:06.408Z,63.23
2022-11-13T13:41:18.008Z,63.77
2022-11-13T13:45:05.980Z,62.97
2022-11-13T13:47:53.964Z,64.93
2022-11-13T13:50:45.923Z,60.83
2022-11-13T13:53:35.009Z,63.17
2022-11-13T13:56:22.510Z,62.67
2022-11-13T13:59:19.578Z,62.10
2022-11-13T14:02:19.795Z,65.90
2022-11-13T14:05:25.545Z,64.97
2022-11-13T14:08:20.276Z,62.17
2022-11-13T14:11:29.591Z,62.33
2022-11-13T14:14:22.181Z,65.07
2022-11-13T14:17:11.244Z,63.33
2022-11-13T14:20:01.247Z,61.87
2022-11-13T14:22:55.246Z,63.07
2022-11-13T14:25:43.786Z,62.70
2022-11-13T14:28:32.416Z,63.87
2022-11-13T14:31:18.513Z,63.77
2022-11-13T14:34:11.836Z,63.33
2022-11-13T14:37:12.756Z,65.70
2022-11-13T14:40:03.265Z,65.50
2022-11-13T14:43:13.998Z,64.97
2022-11-13T14:46:06.718Z,63.77
2022-11-13T14:48:55.148Z,64.50
2022-11-13T14:51:40.537Z,67.03
2022-11-13T14:55:13.007Z,68.57
2022-11-13T14:57:51.085Z,67.17
2022-11-13T15:00:38.482Z,69.50
2022-11-13T15:03:24.801Z,69.57
2022-11-13T15:06:25.208Z,70.00
2022-11-13T15:09:15.381Z,71.47
2022-11-13T15:12:00.935Z,68.53
2022-11-13T15:14:46.426Z,67.17
2022-11-13T15:17:32.060Z,67.77
2022-11-13T15:20:26.623Z,68.10
2022-11-13T15:23:15.533Z,65.87
2022-11-13T15:26:01.115Z,71.63
2022-11-13T15:28:46.387Z,72.80
2022-11-13T15:31:38.150Z,70.80
2022-11-13T15:34:23.870Z,69.37
2022-11-13T15:37:15.295Z,71.63
2022-11-13T15:40:01.223Z,70.60
2022-11-13T15:42:46.923Z,68.67
2022-11-13T15:45:32.497Z,66.27
2022-11-13T15:48:18.040Z,65.70
2022-11-13T15:51:03.405Z,66.23
2022-11-13T15:54:16.354Z,64.67
2022-11-13T15:57:01.977Z,65.57
2022-11-13T15:59:47.798Z,65.13
2022-11-13T16:02:33.431Z,62.80
2022-11-13T16:05:19.083Z,64.93
2022-11-13T16:08:16.069Z,63.83
2022-11-13T16:11:01.896Z,64.07
2022-11-13T16:13:47.538Z,62.63
2022-11-13T16:16:40.987Z,66.53
2022-11-13T16:19:26.508Z,69.10
2022-11-13T16:22:21.489Z,69.23
2022-11-13T16:25:10.818Z,71.73
2022-11-13T16:27:56.374Z,75.77
2022-11-13T16:30:41.831Z,69.73
2022-11-13T16:33:27.569Z,71.30
2022-11-13T16:36:19.327Z,70.50
2022-11-13T16:39:05.716Z,70.30
2022-11-13T16:41:50.992Z,67.73
2022-11-13T16:44:36.324Z,66.13
2022-11-13T16:47:25.646Z,63.23
2022-11-13T16:50:24.635Z,64.77
2022-11-13T16:53:10.621Z,63.30
2022-11-13T16:55:56.261Z,62.17
2022-11-13T16:58:42.019Z,62.97
2022-11-13T17:01:27.677Z,62.03
2022-11-13T17:04:14.862Z,63.30
2022-11-13T17:07:00.553Z,63.97
2022-11-13T17:09:46.741Z,62.67
2022-11-13T17:12:34.946Z,62.30
2022-11-13T17:15:21.518Z,60.77
2022-11-13T17:18:07.098Z,61.07
2022-11-13T17:20:52.761Z,60.93
2022-11-13T17:23:38.661Z,60.13
2022-11-13T17:26:25.349Z,60.10
2022-11-13T17:29:10.859Z,61.83
2022-11-13T17:31:56.638Z,61.73
2022-11-13T17:34:43.701Z,61.27
2022-11-13T17:37:29.042Z,62.87
2022-11-13T17:40:14.537Z,61.87
2022-11-13T17:42:59.801Z,62.10
2022-11-13T17:45:50.947Z,62.57
2022-11-13T17:48:37.467Z,66.00
2022-11-13T17:51:22.929Z,61.53
2022-11-13T17:54:08.558Z,65.27
2022-11-13T17:56:53.835Z,63.67
2022-11-13T17:59:39.241Z,61.63
2022-11-13T18:02:24.522Z,62.50
2022-11-13T18:05:10.235Z,62.73
2022-11-13T18:07:55.773Z,62.90
2022-11-13T18:10:43.017Z,65.43
2022-11-13T18:13:28.740Z,66.47
2022-11-13T18:16:19.348Z,64.17
2022-11-13T18:19:07.093Z,63.87
2022-11-13T18:21:52.574Z,63.63
2022-11-13T18:24:38.142Z,66.33
2022-11-13T18:27:23.733Z,63.00
2022-11-13T18:30:09.664Z,62.57
2022-11-13T18:32:54.908Z,63.23
2022-11-13T18:35:40.388Z,62.03
2022-11-13T18:38:25.695Z,62.27
2022-11-13T18:41:15.726Z,60.70
2022-11-13T18:44:01.271Z,60.87
2022-11-13T18:46:46.987Z,60.80
2022-11-13T18:49:32.511Z,60.77
2022-11-13T18:52:18.102Z,60.80
2022-11-13T18:55:03.750Z,59.53
2022-11-13T18:57:49.033Z,60.30
2022-11-13T19:00:34.404Z,60.63
2022-11-13T19:03:19.806Z,59.07
2022-11-13T19:06:11.004Z,63.10
2022-11-13T19:08:59.315Z,61.37
2022-11-13T19:11:45.526Z,62.73
2022-11-13T19:14:31.206Z,63.40
2022-11-13T19:17:16.525Z,59.93
2022-11-13T19:20:03.131Z,60.73
2022-11-13T19:22:48.945Z,60.67
2022-11-13T19:25:34.391Z,60.53
2022-11-13T19:28:19.866Z,61.10
2022-11-13T19:31:14.520Z,61.77
2022-11-13T19:34:03.579Z,60.77
2022-11-13T19:36:51.483Z,60.47
2022-11-13T19:39:37.726Z,60.60
2022-11-13T19:42:23.325Z,60.93
2022-11-13T19:45:09.033Z,61.53
2022-11-13T19:47:54.413Z,61.17
2022-11-13T19:50:39.647Z,61.47
2022-11-13T19:53:28.232Z,60.90
2022-11-13T19:56:19.194Z,60.40
2022-11-13T19:59:04.554Z,59.47
2022-11-13T20:01:53.087Z,59.40
2022-11-13T20:04:38.310Z,61.10
2022-11-13T20:07:23.636Z,60.77
2022-11-13T20:10:12.038Z,59.73
2022-11-13T20:12:57.369Z,61.00
2022-11-13T20:15:42.723Z,60.47
2022-11-13T20:18:28.487Z,58.07
2022-11-13T20:21:14.591Z,60.37
2022-11-13T20:24:00.693Z,59.73
2022-11-13T20:26:46.070Z,64.47
2022-11-13T20:29:32.424Z,64.63
2022-11-13T20:32:17.990Z,66.67
2022-11-13T20:35:03.382Z,69.10
2022-11-13T20:37:49.289Z,68.47
2022-11-13T20:40:38.048Z,71.37
2022-11-13T20:43:23.734Z,66.87
2022-11-13T20:46:14.437Z,62.10
2022-11-13T20:48:59.907Z,62.43
2022-11-13T20:51:45.381Z,62.30
2022-11-13T20:54:31.014Z,61.63
2022-11-13T20:57:18.119Z,60.03
2022-11-13T21:00:12.668Z,60.73
2022-11-13T21:03:00.624Z,60.43
2022-11-13T21:05:46.194Z,60.93
2022-11-13T21:08:31.792Z,63.83
2022-11-13T21:11:21.927Z,63.83
2022-11-13T21:14:10.813Z,62.53
2022-11-13T21:16:56.344Z,64.77
2022-11-13T21:19:41.597Z,64.63
2022-11-13T21:22:26.885Z,64.73
2022-11-13T21:25:12.224Z,62.03
2022-11-13T21:27:57.814Z,62.53
2022-11-13T21:30:43.328Z,61.63
2022-11-13T21:33:29.721Z,61.07
2022-11-13T21:36:22.176Z,60.43
2022-11-13T21:39:07.642Z,60.60
2022-11-13T21:41:53.588Z,59.93
2022-11-13T21:44:38.928Z,60.80
2022-11-13T21:47:24.567Z,62.63
2022-11-13T21:50:10.634Z,60.07
2022-11-13T21:52:56.248Z,60.27
2022-11-13T21:55:50.076Z,59.80
2022-11-13T21:58:39.564Z,60.60
2022-11-13T22:01:26.338Z,59.53
2022-11-13T22:04:11.826Z,60.63
2022-11-13T22:06:57.069Z,58.80
2022-11-13T22:09:42.314Z,59.77
2022-11-13T22:12:30.774Z,61.33
2022-11-13T22:15:16.262Z,61.50
2022-11-13T22:18:02.021Z,62.60
2022-11-13T22:20:49.289Z,59.93
2022-11-13T22:23:35.380Z,60.40
2022-11-13T22:26:24.870Z,58.80
2022-11-13T22:29:10.119Z,60.63
2022-11-13T22:31:55.508Z,59.37
2022-11-13T22:34:43.826Z,58.80
2022-11-13T22:37:29.180Z,60.13
2022-11-13T22:40:18.680Z,58.50
2022-11-13T22:43:04.149Z,60.30
2022-11-13T22:45:49.522Z,58.97
2022-11-13T22:48:37.274Z,61.03
2022-11-13T22:51:26.586Z,59.03
2022-11-13T22:54:14.953Z,58.70
2022-11-13T22:57:04.207Z,59.87
2022-11-13T22:59:49.753Z,60.47
2022-11-13T23:02:35.942Z,60.37
2022-11-13T23:05:21.315Z,59.17
2022-11-13T23:11:10.167Z,59.70
2022-11-13T23:13:59.569Z,61.57
2022-11-13T23:16:44.946Z,62.13
2022-11-13T23:19:39.096Z,62.07
2022-11-13T23:22:25.656Z,61.73
2022-11-13T23:25:10.819Z,61.30
2022-11-13T23:27:56.092Z,60.20
2022-11-13T23:30:41.464Z,59.47
2022-11-13T23:33:27.787Z,59.87
2022-11-13T23:36:14.562Z,60.53
2022-11-13T23:39:00.081Z,59.97
2022-11-13T23:41:46.163Z,60.87
2022-11-13T23:44:31.418Z,60.23
2022-11-13T23:47:16.716Z,60.93
2022-11-13T23:50:04.610Z,59.53
2022-11-13T23:52:50.113Z,59.50
2022-11-13T23:55:38.845Z,59.83
2022-11-13T23:58:24.433Z,59.90
